createdAt,value
2022-08-05T00:00:46.615Z,20.52
2022-08-05T00:03:16.600Z,20.51
2022-08-05T00:06:04.859Z,20.53
2022-08-05T00:08:35.244Z,20.50
2022-08-05T00:11:04.261Z,20.50
2022-08-05T00:13:38.238Z,20.53
2022-08-05T00:16:08.893Z,20.52
2022-08-05T00:18:37.972Z,20.47
2022-08-05T00:21:06.508Z,20.46
2022-08-05T00:23:45.814Z,20.43
2022-08-05T00:26:20.470Z,20.40
2022-08-05T00:28:46.981Z,20.30
2022-08-05T00:31:15.976Z,20.22
2022-08-05T00:34:55.263Z,20.26
2022-08-05T00:37:10.631Z,20.32
2022-08-05T00:39:15.636Z,20.24
2022-08-05T00:41:51.663Z,20.13
2022-08-05T00:44:18.950Z,20.10
2022-08-05T00:46:47.459Z,20.07
2022-08-05T00:49:20.959Z,20.10
2022-08-05T00:51:50.775Z,20.07
2022-08-05T00:54:18.955Z,19.99
2022-08-05T00:56:51.312Z,19.91
2022-08-05T00:59:18.459Z,19.91
2022-08-05T01:01:48.710Z,19.89
2022-08-05T01:04:15.691Z,19.84
2022-08-05T01:06:43.690Z,19.83
2022-08-05T01:09:13.175Z,19.84
2022-08-05T01:11:41.522Z,19.84
2022-08-05T01:14:28.267Z,19.83
2022-08-05T01:17:27.395Z,19.81
2022-08-05T01:20:09.287Z,19.78
2022-08-05T01:22:35.630Z,19.75
2022-08-05T01:25:20.954Z,19.78
2022-08-05T01:28:15.602Z,19.86
2022-08-05T01:30:55.256Z,19.85
2022-08-05T01:33:26.479Z,19.85
2022-08-05T01:35:55.638Z,19.82
2022-08-05T01:38:27.357Z,19.71
2022-08-05T01:40:58.796Z,19.67
2022-08-05T01:43:27.864Z,19.63
2022-08-05T01:45:56.566Z,19.65
2022-08-05T01:48:29.388Z,19.67
2022-08-05T01:50:57.624Z,19.73
2022-08-05T01:53:55.235Z,19.77
2022-08-05T01:58:13.576Z,19.78
2022-08-05T01:59:08.211Z,19.75
2022-08-05T02:01:39.839Z,19.81
2022-08-05T02:04:10.360Z,19.81
2022-08-05T02:06:38.945Z,19.76
2022-08-05T02:09:07.301Z,19.70
2022-08-05T02:12:02.876Z,19.70
2022-08-05T02:14:40.023Z,19.72
2022-08-05T02:18:28.686Z,19.73
2022-08-05T02:20:10.142Z,19.68
2022-08-05T02:22:41.816Z,19.65
2022-08-05T02:25:14.369Z,19.61
2022-08-05T02:27:59.237Z,19.57
2022-08-05T02:30:35.247Z,19.57
2022-08-05T02:33:02.662Z,19.61
2022-08-05T02:35:37.763Z,19.60
2022-08-05T02:38:13.279Z,19.43
2022-08-05T02:40:46.896Z,19.45
2022-08-05T02:43:15.436Z,19.50
2022-08-05T02:45:51.466Z,19.47
2022-08-05T02:48:29.455Z,19.41
2022-08-05T02:50:59.709Z,19.42
2022-08-05T02:53:27.767Z,19.45
2022-08-05T02:56:00.326Z,19.46
2022-08-05T02:58:30.287Z,19.45
2022-08-05T03:01:01.813Z,19.39
2022-08-05T03:03:33.818Z,19.26
2022-08-05T03:06:55.285Z,19.15
2022-08-05T03:09:05.138Z,19.12
2022-08-05T03:11:54.769Z,19.19
2022-08-05T03:14:20.893Z,19.27
2022-08-05T03:16:47.651Z,19.33
2022-08-05T03:19:17.373Z,19.38
2022-08-05T03:22:00.160Z,19.34
2022-08-05T03:24:30.425Z,19.30
2022-08-05T03:26:59.044Z,19.29
2022-08-05T03:29:45.721Z,19.28
2022-08-05T03:32:14.377Z,19.29
2022-08-05T03:34:42.013Z,19.29
2022-08-05T03:37:08.551Z,19.19
2022-08-05T03:39:57.684Z,19.11
2022-08-05T03:42:24.028Z,19.05
2022-08-05T03:44:53.769Z,19.02
2022-08-05T03:47:20.366Z,18.94
2022-08-05T03:49:51.980Z,18.96
2022-08-05T03:52:37.321Z,18.98
2022-08-05T03:56:05.685Z,19.07
2022-08-05T03:58:11.062Z,19.07
2022-08-05T04:00:41.985Z,19.12
2022-08-05T04:03:14.916Z,19.11
2022-08-05T04:05:56.160Z,19.08
2022-08-05T04:08:34.918Z,19.06
2022-08-05T04:11:05.987Z,19.02
2022-08-05T04:13:49.850Z,19.04
2022-08-05T04:16:25.020Z,19.05
2022-08-05T04:18:54.115Z,19.01
2022-08-05T04:22:09.008Z,19.01
2022-08-05T04:24:08.938Z,18.93
2022-08-05T04:26:40.850Z,18.87
2022-08-05T04:29:07.628Z,18.89
2022-08-05T04:31:38.569Z,18.89
2022-08-05T04:34:31.175Z,18.84
2022-08-05T04:36:53.043Z,18.82
2022-08-05T04:39:20.247Z,18.83
2022-08-05T04:41:48.061Z,18.79
2022-08-05T04:44:14.999Z,18.77
2022-08-05T04:46:47.672Z,18.76
2022-08-05T04:49:15.349Z,18.70
2022-08-05T04:51:44.028Z,18.65
2022-08-05T04:54:12.019Z,18.70
2022-08-05T04:56:39.209Z,18.75
2022-08-05T04:59:21.722Z,18.77
2022-08-05T05:02:35.457Z,18.77
2022-08-05T05:04:38.498Z,18.77
2022-08-05T05:07:11.623Z,18.79
2022-08-05T05:09:42.328Z,18.81
2022-08-05T05:12:10.968Z,18.81
2022-08-05T05:14:38.229Z,18.79
2022-08-05T05:17:22.741Z,18.76
2022-08-05T05:19:53.257Z,18.80
2022-08-05T05:22:23.469Z,18.90
2022-08-05T05:24:57.593Z,18.98
2022-08-05T05:27:44.776Z,19.02
2022-08-05T05:30:29.866Z,19.05
2022-08-05T05:33:00.622Z,19.13
2022-08-05T05:35:34.274Z,19.17
2022-08-05T05:38:09.419Z,19.24
2022-08-05T05:40:48.249Z,19.25
2022-08-05T05:43:22.270Z,19.21
2022-08-05T05:46:05.210Z,19.18
2022-08-05T05:48:34.451Z,19.22
2022-08-05T05:51:14.797Z,19.23
2022-08-05T05:53:45.948Z,19.20
2022-08-05T05:56:26.080Z,19.33
2022-08-05T05:59:03.437Z,19.50
2022-08-05T06:01:37.552Z,19.65
2022-08-05T06:04:12.196Z,19.70
2022-08-05T06:06:47.339Z,19.68
2022-08-05T06:09:17.729Z,19.77
2022-08-05T06:11:59.725Z,19.79
2022-08-05T06:14:30.756Z,19.86
2022-08-05T06:16:57.895Z,19.90
2022-08-05T06:19:26.129Z,19.95
2022-08-05T06:22:06.631Z,20.11
2022-08-05T06:24:34.840Z,20.20
2022-08-05T06:27:04.013Z,20.46
2022-08-05T06:29:52.033Z,20.56
2022-08-05T06:32:24.921Z,20.52
2022-08-05T06:34:54.066Z,20.51
2022-08-05T06:37:56.082Z,20.68
2022-08-05T06:40:10.116Z,20.66
2022-08-05T06:42:37.356Z,20.71
2022-08-05T06:45:08.923Z,20.74
2022-08-05T06:48:36.208Z,20.69
2022-08-05T06:50:23.599Z,20.77
2022-08-05T06:52:58.642Z,20.83
2022-08-05T06:55:36.383Z,20.85
2022-08-05T06:58:20.581Z,20.89
2022-08-05T07:00:51.167Z,21.00
2022-08-05T07:03:17.834Z,20.96
2022-08-05T07:05:46.202Z,20.80
2022-08-05T07:08:13.268Z,20.69
2022-08-05T07:10:53.327Z,20.56
2022-08-05T07:13:57.688Z,20.55
2022-08-05T07:17:59.876Z,20.32
2022-08-05T07:20:10.580Z,20.38
2022-08-05T07:22:17.610Z,20.39
2022-08-05T07:24:52.715Z,20.32
2022-08-05T07:27:20.250Z,20.42
2022-08-05T07:30:22.045Z,20.49
2022-08-05T07:32:38.503Z,20.48
2022-08-05T07:35:56.065Z,20.53
2022-08-05T07:37:59.096Z,20.58
2022-08-05T07:40:32.205Z,20.59
2022-08-05T07:42:59.284Z,20.75
2022-08-05T07:45:57.468Z,20.75
2022-08-05T07:49:00.985Z,20.71
2022-08-05T07:51:22.991Z,20.73
2022-08-05T07:53:51.680Z,20.73
2022-08-05T07:57:00.033Z,20.83
2022-08-05T07:59:04.816Z,20.80
2022-08-05T08:01:35.373Z,20.81
2022-08-05T08:04:08.108Z,21.01
2022-08-05T08:06:34.692Z,21.14
2022-08-05T08:09:01.179Z,21.22
2022-08-05T08:11:47.810Z,21.18
2022-08-05T08:14:18.219Z,21.22
2022-08-05T08:16:51.029Z,21.32
2022-08-05T08:20:10.437Z,21.39
2022-08-05T08:22:05.106Z,21.34
2022-08-05T08:24:45.992Z,21.46
2022-08-05T08:27:18.918Z,21.48
2022-08-05T08:30:06.088Z,21.69
2022-08-05T08:32:34.715Z,21.79
2022-08-05T08:35:07.564Z,21.85
2022-08-05T08:37:40.372Z,21.86
2022-08-05T08:40:12.360Z,21.91
2022-08-05T08:42:50.671Z,21.96
2022-08-05T08:45:26.637Z,21.97
2022-08-05T08:48:12.938Z,21.86
2022-08-05T08:51:03.389Z,21.68
2022-08-05T08:53:40.211Z,21.49
2022-08-05T08:56:10.993Z,21.32
2022-08-05T08:58:44.563Z,21.24
2022-08-05T09:01:15.746Z,21.11
2022-08-05T09:03:54.316Z,20.98
2022-08-05T09:06:24.227Z,20.93
2022-08-05T09:08:58.591Z,21.03
2022-08-05T09:11:50.806Z,21.28
2022-08-05T09:14:56.768Z,21.37
2022-08-05T09:17:04.651Z,21.63
2022-08-05T09:19:36.665Z,21.72
2022-08-05T09:22:31.810Z,21.69
2022-08-05T09:25:13.824Z,21.85
2022-08-05T09:28:04.420Z,21.98
2022-08-05T09:30:34.694Z,22.37
2022-08-05T09:33:02.365Z,22.55
2022-08-05T09:35:29.480Z,22.74
2022-08-05T09:38:17.267Z,22.81
2022-08-05T09:40:52.545Z,22.76
2022-08-05T09:43:40.604Z,22.98
2022-08-05T09:46:33.075Z,23.30
2022-08-05T09:49:19.012Z,23.45
2022-08-05T09:51:48.751Z,23.47
2022-08-05T09:54:29.102Z,23.59
2022-08-05T09:56:57.560Z,23.50
2022-08-05T09:59:28.057Z,23.48
2022-08-05T10:01:57.922Z,23.39
2022-08-05T10:04:35.280Z,23.20
2022-08-05T10:07:19.632Z,23.13
2022-08-05T10:10:00.303Z,23.31
2022-08-05T10:12:49.212Z,23.56
2022-08-05T10:15:20.195Z,23.59
2022-08-05T10:18:09.817Z,23.71
2022-08-05T10:20:59.454Z,23.79
2022-08-05T10:23:59.924Z,23.79
2022-08-05T10:26:52.405Z,23.99
2022-08-05T10:29:11.397Z,23.92
2022-08-05T10:32:52.338Z,23.97
2022-08-05T10:34:31.102Z,23.91
2022-08-05T10:36:58.360Z,23.59
2022-08-05T10:40:03.157Z,23.53
2022-08-05T10:42:33.789Z,23.53
2022-08-05T10:45:01.933Z,23.45
2022-08-05T10:48:30.384Z,23.78
2022-08-05T10:51:04.797Z,23.76
2022-08-05T10:53:51.998Z,24.16
2022-08-05T10:56:26.147Z,24.53
2022-08-05T10:58:55.682Z,25.02
2022-08-05T11:01:54.929Z,25.24
2022-08-05T11:04:28.267Z,25.61
2022-08-05T11:07:01.374Z,25.35
2022-08-05T11:09:46.079Z,25.01
2022-08-05T11:12:37.226Z,24.88
2022-08-05T11:15:19.113Z,24.67
2022-08-05T11:17:57.883Z,24.81
2022-08-05T11:20:43.632Z,24.98
2022-08-05T11:24:04.963Z,24.70
2022-08-05T11:26:33.053Z,24.35
2022-08-05T11:29:12.027Z,24.72
2022-08-05T11:31:57.608Z,24.52
2022-08-05T11:34:38.616Z,24.37
2022-08-05T11:37:06.253Z,24.06
2022-08-05T11:40:00.456Z,24.35
2022-08-05T11:42:37.754Z,24.60
2022-08-05T11:45:27.037Z,24.65
2022-08-05T11:47:57.937Z,24.68
2022-08-05T11:50:25.814Z,24.79
2022-08-05T11:52:57.701Z,24.46
2022-08-05T11:55:31.812Z,24.34
2022-08-05T11:58:09.648Z,24.35
2022-08-05T12:00:39.019Z,24.57
2022-08-05T12:03:28.529Z,24.61
2022-08-05T12:06:02.846Z,24.64
2022-08-05T12:08:31.659Z,24.79
2022-08-05T12:11:05.803Z,25.01
2022-08-05T12:13:48.872Z,25.01
2022-08-05T12:16:18.993Z,24.99
2022-08-05T12:18:49.331Z,24.98
2022-08-05T12:21:26.792Z,25.13
2022-08-05T12:24:03.354Z,25.23
2022-08-05T12:26:43.863Z,25.22
2022-08-05T12:29:16.426Z,25.29
2022-08-05T12:31:50.132Z,25.20
2022-08-05T12:34:26.669Z,25.10
2022-08-05T12:36:54.507Z,25.01
2022-08-05T12:39:23.692Z,24.89
2022-08-05T12:42:00.854Z,24.99
2022-08-05T12:44:33.333Z,25.05
2022-08-05T12:47:02.142Z,24.98
2022-08-05T12:50:03.869Z,25.15
2022-08-05T12:52:41.668Z,25.30
2022-08-05T12:55:23.236Z,25.49
2022-08-05T12:58:48.494Z,25.52
2022-08-05T13:02:03.462Z,25.32
2022-08-05T13:03:32.381Z,25.39
2022-08-05T13:05:59.892Z,25.30
2022-08-05T13:08:32.138Z,25.13
2022-08-05T13:11:01.967Z,25.24
2022-08-05T13:14:06.170Z,25.24
2022-08-05T13:16:17.155Z,25.31
2022-08-05T13:18:59.420Z,25.01
2022-08-05T13:21:27.882Z,25.44
2022-08-05T13:24:04.860Z,25.79
2022-08-05T13:26:31.386Z,25.48
2022-08-05T13:28:59.313Z,25.29
2022-08-05T13:32:02.943Z,25.15
2022-08-05T13:34:22.766Z,25.25
2022-08-05T13:36:50.311Z,25.38
2022-08-05T13:40:13.959Z,25.46
2022-08-05T13:42:04.901Z,25.26
2022-08-05T13:44:32.679Z,24.77
2022-08-05T13:47:04.867Z,24.57
2022-08-05T13:49:35.899Z,24.43
2022-08-05T13:52:29.112Z,24.59
2022-08-05T13:54:56.969Z,24.55
2022-08-05T13:57:26.173Z,24.90
2022-08-05T14:00:13.122Z,25.33
2022-08-05T14:02:39.697Z,25.08
2022-08-05T14:05:15.272Z,24.71
2022-08-05T14:08:00.875Z,24.70
2022-08-05T14:10:32.440Z,24.82
2022-08-05T14:12:59.359Z,24.84
2022-08-05T14:16:07.886Z,25.08
2022-08-05T14:18:17.370Z,24.86
2022-08-05T14:20:47.729Z,24.81
2022-08-05T14:23:23.813Z,24.81
2022-08-05T14:25:54.548Z,24.62
2022-08-05T14:28:29.463Z,24.34
2022-08-05T14:31:00.603Z,24.36
2022-08-05T14:33:57.013Z,24.41
2022-08-05T14:36:21.387Z,24.11
2022-08-05T14:38:48.415Z,24.09
2022-08-05T14:41:18.718Z,24.16
2022-08-05T14:44:02.718Z,24.19
2022-08-05T14:46:32.732Z,24.29
2022-08-05T14:49:06.906Z,24.22
2022-08-05T14:51:38.032Z,24.05
2022-08-05T14:54:27.842Z,23.98
2022-08-05T14:56:54.604Z,23.88
2022-08-05T14:59:21.818Z,23.92
2022-08-05T15:01:49.724Z,23.93
2022-08-05T15:04:20.644Z,23.82
2022-08-05T15:06:50.282Z,23.68
2022-08-05T15:09:51.039Z,23.64
2022-08-05T15:12:08.870Z,23.78
2022-08-05T15:14:48.144Z,23.65
2022-08-05T15:17:47.231Z,23.85
2022-08-05T15:20:04.206Z,23.77
2022-08-05T15:22:30.667Z,23.63
2022-08-05T15:24:59.201Z,23.69
2022-08-05T15:27:32.011Z,23.61
2022-08-05T15:30:03.764Z,23.49
2022-08-05T15:32:30.333Z,23.44
2022-08-05T15:34:58.254Z,23.27
2022-08-05T15:38:31.961Z,23.31
2022-08-05T15:40:59.707Z,23.22
2022-08-05T15:43:09.208Z,22.86
2022-08-05T15:45:43.895Z,22.74
2022-08-05T15:48:13.956Z,22.78
2022-08-05T15:50:41.212Z,22.92
2022-08-05T15:53:12.778Z,23.00
2022-08-05T15:56:02.706Z,23.01
2022-08-05T15:58:28.210Z,22.95
2022-08-05T16:01:11.660Z,22.74
2022-08-05T16:03:42.317Z,22.77
2022-08-05T16:06:11.205Z,22.87
2022-08-05T16:08:38.627Z,22.75
2022-08-05T16:11:07.123Z,22.77
2022-08-05T16:13:35.163Z,22.97
2022-08-05T16:16:03.608Z,23.01
2022-08-05T16:18:30.998Z,22.79
2022-08-05T16:20:58.597Z,23.01
2022-08-05T16:23:29.192Z,23.08
2022-08-05T16:26:15.690Z,23.10
2022-08-05T16:28:43.332Z,22.94
2022-08-05T16:31:10.511Z,22.97
2022-08-05T16:33:41.505Z,23.03
2022-08-05T16:36:09.092Z,23.02
2022-08-05T16:38:35.762Z,22.65
2022-08-05T16:42:12.118Z,22.37
2022-08-05T16:43:49.328Z,22.30
2022-08-05T16:46:24.829Z,22.36
2022-08-05T16:48:51.870Z,22.42
2022-08-05T16:51:19.241Z,22.44
2022-08-05T16:54:05.650Z,22.42
2022-08-05T16:56:38.128Z,22.45
2022-08-05T16:59:11.901Z,22.02
2022-08-05T17:01:53.727Z,21.65
2022-08-05T17:04:23.812Z,21.37
2022-08-05T17:06:53.662Z,21.57
2022-08-05T17:09:20.586Z,21.60
2022-08-05T17:11:55.987Z,21.49
2022-08-05T17:14:36.851Z,21.40
2022-08-05T17:17:05.766Z,21.44
2022-08-05T17:19:32.276Z,21.41
2022-08-05T17:22:00.627Z,21.38
2022-08-05T17:24:35.226Z,21.27
2022-08-05T17:27:07.473Z,21.29
2022-08-05T17:29:41.113Z,21.21
2022-08-05T17:32:11.637Z,21.02
2022-08-05T17:34:47.647Z,20.97
2022-08-05T17:37:40.241Z,20.90
2022-08-05T17:40:10.000Z,20.82
2022-08-05T17:42:41.557Z,20.73
2022-08-05T17:45:20.782Z,20.67
2022-08-05T17:47:53.429Z,20.53
2022-08-05T17:50:28.558Z,20.59
2022-08-05T17:52:58.935Z,20.48
2022-08-05T17:55:34.363Z,20.46
2022-08-05T17:58:12.913Z,20.53
2022-08-05T18:00:47.634Z,20.41
2022-08-05T18:03:59.622Z,20.32
2022-08-05T18:06:11.974Z,20.26
2022-08-05T18:08:44.800Z,20.22
2022-08-05T18:11:24.349Z,20.12
2022-08-05T18:14:06.804Z,20.00
2022-08-05T18:16:35.200Z,19.99
2022-08-05T18:19:18.187Z,20.00
2022-08-05T18:22:09.470Z,20.02
2022-08-05T18:24:36.189Z,20.04
2022-08-05T18:27:02.699Z,20.05
2022-08-05T18:29:40.512Z,20.03
2022-08-05T18:32:13.086Z,19.97
2022-08-05T18:34:40.696Z,19.95
2022-08-05T18:37:08.402Z,19.98
2022-08-05T18:40:31.051Z,19.95
2022-08-05T18:42:26.216Z,19.91
2022-08-05T18:44:56.540Z,19.84
2022-08-05T18:47:26.344Z,19.76
2022-08-05T18:50:12.083Z,19.67
2022-08-05T18:52:41.813Z,19.51
2022-08-05T18:55:18.594Z,19.39
2022-08-05T18:57:52.607Z,19.25
2022-08-05T19:00:29.193Z,19.24
2022-08-05T19:02:56.907Z,19.17
2022-08-05T19:06:13.612Z,19.06
2022-08-05T19:08:12.196Z,18.96
2022-08-05T19:10:40.745Z,18.85
2022-08-05T19:13:07.425Z,18.76
2022-08-05T19:15:57.538Z,18.64
2022-08-05T19:18:26.068Z,18.57
2022-08-05T19:20:56.559Z,18.49
2022-08-05T19:24:07.389Z,18.45
2022-08-05T19:26:13.875Z,18.42
2022-08-05T19:28:42.237Z,18.41
2022-08-05T19:31:17.765Z,18.40
2022-08-05T19:33:47.933Z,18.26
2022-08-05T19:36:23.075Z,18.22
2022-08-05T19:38:49.607Z,18.22
2022-08-05T19:41:16.109Z,18.13
2022-08-05T19:44:05.653Z,17.99
2022-08-05T19:46:30.959Z,17.97
2022-08-05T19:49:03.141Z,17.94
2022-08-05T19:52:09.411Z,17.90
2022-08-05T19:54:25.536Z,17.83
2022-08-05T19:56:55.223Z,17.76
2022-08-05T19:59:59.332Z,17.75
2022-08-05T20:02:08.461Z,17.70
2022-08-05T20:04:37.236Z,17.52
2022-08-05T20:07:03.938Z,17.47
2022-08-05T20:09:54.985Z,17.43
2022-08-05T20:12:26.476Z,17.37
2022-08-05T20:14:53.319Z,17.44
2022-08-05T20:17:23.492Z,17.42
2022-08-05T20:19:57.012Z,17.35
2022-08-05T20:22:26.746Z,17.36
2022-08-05T20:24:54.529Z,17.35
2022-08-05T20:27:26.932Z,17.31
2022-08-05T20:29:58.531Z,17.30
2022-08-05T20:32:26.580Z,17.30
2022-08-05T20:34:53.622Z,17.24
2022-08-05T20:38:04.873Z,17.26
2022-08-05T20:40:07.911Z,17.22
2022-08-05T20:42:34.716Z,17.17
2022-08-05T20:45:02.101Z,17.10
2022-08-05T20:47:31.119Z,17.05
2022-08-05T20:49:59.434Z,17.09
2022-08-05T20:52:26.383Z,17.08
2022-08-05T20:55:54.283Z,16.95
2022-08-05T20:57:43.319Z,16.93
2022-08-05T21:00:41.432Z,16.86
2022-08-05T21:03:06.213Z,16.85
2022-08-05T21:05:53.843Z,16.82
2022-08-05T21:08:32.904Z,16.87
2022-08-05T21:11:15.259Z,16.85
2022-08-05T21:13:59.913Z,16.87
2022-08-05T21:16:29.326Z,16.79
2022-08-05T21:18:56.811Z,16.79
2022-08-05T21:21:26.746Z,16.74
2022-08-05T21:24:07.315Z,16.72
2022-08-05T21:26:33.938Z,16.71
2022-08-05T21:29:03.736Z,16.65
2022-08-05T21:31:41.541Z,16.62
2022-08-05T21:34:10.606Z,16.59
2022-08-05T21:36:37.960Z,16.54
2022-08-05T21:39:04.848Z,16.53
2022-08-05T21:41:33.786Z,16.50
2022-08-05T21:44:01.537Z,16.42
2022-08-05T21:46:30.980Z,16.38
2022-08-05T21:48:59.986Z,16.33
2022-08-05T21:52:16.620Z,16.28
2022-08-05T21:54:13.191Z,16.21
2022-08-05T21:56:44.506Z,16.17
2022-08-05T21:59:22.604Z,16.13
2022-08-05T22:01:51.689Z,16.09
2022-08-05T22:04:21.149Z,16.01
2022-08-05T22:06:52.367Z,15.93
2022-08-05T22:09:21.058Z,15.87
2022-08-05T22:11:48.945Z,15.84
2022-08-05T22:14:37.354Z,15.83
2022-08-05T22:17:06.582Z,15.82
2022-08-05T22:20:00.302Z,15.78
2022-08-05T22:22:28.263Z,15.75
2022-08-05T22:25:23.981Z,15.72
2022-08-05T22:28:10.405Z,15.68
2022-08-05T22:30:55.612Z,15.64
2022-08-05T22:33:57.106Z,15.59
2022-08-05T22:36:14.209Z,15.53
2022-08-05T22:38:42.539Z,15.50
2022-08-05T22:41:10.203Z,15.45
2022-08-05T22:43:38.081Z,15.43
2022-08-05T22:46:13.670Z,15.41
2022-08-05T22:48:50.534Z,15.36
2022-08-05T22:51:22.729Z,15.32
2022-08-05T22:54:05.102Z,15.28
2022-08-05T22:56:31.900Z,15.25
2022-08-05T22:59:00.022Z,15.21
2022-08-05T23:02:05.227Z,15.20
2022-08-05T23:04:18.102Z,15.16
2022-08-05T23:06:44.595Z,15.13
2022-08-05T23:09:24.634Z,15.09
2022-08-05T23:11:54.750Z,15.06
2022-08-05T23:14:22.544Z,15.02
2022-08-05T23:17:08.138Z,14.95
2022-08-05T23:19:46.575Z,14.92
2022-08-05T23:22:24.195Z,14.88
2022-08-05T23:24:54.789Z,14.81
2022-08-05T23:27:22.717Z,14.75
2022-08-05T23:29:50.807Z,14.73
2022-08-05T23:32:17.499Z,14.66
2022-08-05T23:34:49.855Z,14.64
2022-08-05T23:37:17.677Z,14.61
2022-08-05T23:39:53.340Z,14.50
2022-08-05T23:42:23.550Z,14.42
2022-08-05T23:44:56.638Z,14.37
2022-08-05T23:47:25.051Z,14.36
2022-08-05T23:49:55.583Z,14.36
2022-08-05T23:52:26.491Z,14.37
2022-08-05T23:54:56.042Z,14.36
2022-08-05T23:57:22.572Z,14.34
